Kairouan, Tunisia
Current Conditions -  °F | °C
As of 5:00 PM on Sunday 21 Dec 2014 (Local Time) from DTTK Reporting Station
Few Clouds Few Clouds  
Wind Chill: 64°   Ceiling: Unl
Heat Index: 64°   Visibility: 6mi
Dew Point: 43°   Wind: 7mph
Humidity: 45%   Direction: 330°NNW
Pressure: 30.36"   Gusts: NA
Location:  35.68°N, 10.1°E
Report Text: DTTK 211600Z 33006KT 9999 FEW023 18/06 Q1028
Loading
Personal Weather Stations






























Interactive Weather Map New forecast layout! Learn more

10-Day Weather Forecast

Advertisements
Track Severe Weather on mobile